Portada
METAR-TAF:

METAR-TAF

Aeroports :

Aeroport Internacional de Moscou-Xeremètievo

Moscou-Sheremetyevo, Rússia

latitud: 55-58N, longitud: 037-25E, altitud: 190 m

Observació

L'informe es va fer fa 42 minuts, a les 21:30 UTC
Vent 8 kt del Oest/Nord-Oest
Temperatura 14°C
Humitat 88%
Pressió 1023 hPa
Visibilitat 10 km o més
sense núvols per sota de 1500 mi sense presència de cumulonimbus.

METAR: UUEE 242130Z 29004MPS CAVOK 14/12 Q1023 R24C/190057 R24L/CLRD62 NOSIG

Hora: 01:12 (22:12 UTC)

Pronòstic

L'informe es va fer fa 2 hores i 13 minuts, a les 19:59 UTC
Pronòstic vàlid del 24 a les 21 UTC al 25 a les 21 UTC
Vent 6 kt del Nord-Oest
Visibilitat 10 km o més
Núvols disperses a una alçada de 3000 ft
Evolucionant progressivament
l' 25 a les 06 UTC al 25 a les 10 UTC
Vent 12 kt del Nord amb ràfegues de 23 kt

TAF: UUEE 241959Z 2421/2521 31003MPS 9999 SCT030 TX23/2512Z TN11/2503Z BECMG 2506/2510 35006G12MPS

Observacions i pronòstics meteorològics de més de 4000 aeroports (METAR i TAF).

Les estacions disponibles són els punts grocs i vermells al mapa.

Posi el ratolí al punt desitjat per veure el nom de l'estació.

Feu clic per veure les observacions i els pronòstics meteorològics.

Per canviar el mapa: feu clic els botons verds amb una creu de color negre per apropar; al botó verd amb un guió per allunyar la imatge; o en les fletxes verdes per a mapes adjacents.


METAR-TAF: